createdAt,value
2019-02-24T00:01:36.829Z,101931.23
2019-02-24T00:04:42.462Z,101931.44
2019-02-24T00:07:47.665Z,101933.92
2019-02-24T00:10:52.866Z,101931.08
2019-02-24T00:13:58.015Z,101934.25
2019-02-24T00:17:03.407Z,101934.81
2019-02-24T00:20:08.575Z,101935.36
2019-02-24T00:23:13.745Z,101932.20
2019-02-24T00:26:19.023Z,101940.20
2019-02-24T00:29:24.288Z,101937.69
2019-02-24T00:32:29.555Z,101939.32
2019-02-24T00:35:34.757Z,101937.56
2019-02-24T00:38:39.967Z,101937.77
2019-02-24T00:41:45.374Z,101938.57
2019-02-24T00:44:50.553Z,101947.55
2019-02-24T00:47:55.790Z,101939.77
2019-02-24T00:51:02.143Z,101939.45
2019-02-24T00:54:07.387Z,101935.52
2019-02-24T00:57:12.711Z,101929.30
2019-02-24T01:00:17.928Z,101932.84
2019-02-24T01:03:23.140Z,101931.23
2019-02-24T01:06:28.341Z,101940.65
2019-02-24T01:09:33.510Z,101933.57
2019-02-24T01:12:38.565Z,101940.95
2019-02-24T01:15:43.818Z,101932.34
2019-02-24T01:18:49.031Z,101926.94
2019-02-24T01:21:54.178Z,101925.56
2019-02-24T01:24:59.331Z,101916.67
2019-02-24T01:28:04.481Z,101915.83
2019-02-24T01:31:09.613Z,101906.83
2019-02-24T01:34:14.761Z,101913.00
2019-02-24T01:37:19.937Z,101913.91
2019-02-24T01:40:25.270Z,101911.31
2019-02-24T01:43:31.363Z,101910.38
2019-02-24T01:46:36.515Z,101915.67
2019-02-24T01:49:41.608Z,101909.93
2019-02-24T01:52:46.726Z,101903.48
2019-02-24T01:55:51.879Z,101910.78
2019-02-24T01:58:57.121Z,101902.65
2019-02-24T02:02:02.232Z,101903.19
2019-02-24T02:05:07.550Z,101903.81
2019-02-24T02:08:12.709Z,101898.81
2019-02-24T02:11:18.364Z,101896.55
2019-02-24T02:14:23.550Z,101893.07
2019-02-24T02:17:28.887Z,101893.09
2019-02-24T02:20:34.049Z,101886.78
2019-02-24T02:23:39.159Z,101876.53
2019-02-24T02:26:44.368Z,101886.09
2019-02-24T02:29:49.556Z,101882.30
2019-02-24T02:32:54.758Z,101878.93
2019-02-24T02:35:59.986Z,101880.50
2019-02-24T02:39:05.787Z,101878.64
2019-02-24T02:42:11.613Z,101881.04
2019-02-24T02:45:16.830Z,101884.84
2019-02-24T02:48:22.025Z,101883.77
2019-02-24T02:51:27.252Z,101889.20
2019-02-24T02:54:32.421Z,101882.83
2019-02-24T02:57:37.506Z,101887.25
2019-02-24T03:00:42.663Z,101884.02
2019-02-24T03:03:47.878Z,101879.96
2019-02-24T03:07:01.634Z,101879.34
2019-02-24T03:10:06.835Z,101886.63
2019-02-24T03:13:11.976Z,101883.14
2019-02-24T03:16:23.035Z,101885.47
2019-02-24T03:19:29.244Z,101884.30
2019-02-24T03:22:34.375Z,101885.94
2019-02-24T03:25:39.462Z,101891.16
2019-02-24T03:28:44.792Z,101894.80
2019-02-24T03:31:49.981Z,101896.55
2019-02-24T03:34:55.172Z,101890.80
2019-02-24T03:38:00.332Z,101891.12
2019-02-24T03:41:05.566Z,101891.84
2019-02-24T03:44:10.747Z,101891.36
2019-02-24T03:47:15.992Z,101896.64
2019-02-24T03:50:21.086Z,101901.86
2019-02-24T03:53:26.426Z,101900.86
2019-02-24T03:56:31.594Z,101906.52
2019-02-24T03:59:36.698Z,101916.54
2019-02-24T04:02:41.892Z,101917.98
2019-02-24T04:05:47.035Z,101915.03
2019-02-24T04:08:52.194Z,101922.30
2019-02-24T04:11:57.362Z,101915.71
2019-02-24T04:15:02.474Z,101908.80
2019-02-24T04:18:07.695Z,101908.03
2019-02-24T04:21:12.866Z,101903.28
2019-02-24T04:24:17.995Z,101900.95
2019-02-24T04:27:23.140Z,101897.18
2019-02-24T04:30:29.352Z,101898.81
2019-02-24T04:33:34.565Z,101900.67
2019-02-24T04:36:39.748Z,101900.92
2019-02-24T04:39:44.912Z,101898.53
2019-02-24T04:42:50.162Z,101906.67
2019-02-24T04:45:55.232Z,101904.72
2019-02-24T04:49:00.447Z,101908.84
2019-02-24T04:52:05.576Z,101914.34
2019-02-24T04:55:10.720Z,101915.97
2019-02-24T04:58:15.896Z,101922.78
2019-02-24T05:01:21.115Z,101929.95
2019-02-24T05:04:26.317Z,101926.38
2019-02-24T05:07:31.453Z,101933.38
2019-02-24T05:10:36.674Z,101931.66
2019-02-24T05:13:41.778Z,101940.20
2019-02-24T05:16:46.953Z,101937.72
2019-02-24T05:19:52.015Z,101930.96
2019-02-24T05:22:57.281Z,101933.38
2019-02-24T05:26:02.555Z,101936.30
2019-02-24T05:29:07.661Z,101937.93
2019-02-24T05:32:12.795Z,101933.06
2019-02-24T05:35:18.156Z,101936.92
2019-02-24T05:38:23.426Z,101926.69
2019-02-24T05:41:28.665Z,101929.70
2019-02-24T05:44:33.796Z,101931.22
2019-02-24T05:47:38.932Z,101936.09
2019-02-24T05:50:44.072Z,101935.09
2019-02-24T05:53:49.285Z,101936.75
2019-02-24T05:56:54.362Z,101940.97
2019-02-24T05:59:59.545Z,101939.89
2019-02-24T06:03:04.667Z,101942.43
2019-02-24T06:06:09.866Z,101953.74
2019-02-24T06:09:15.023Z,101955.52
2019-02-24T06:12:20.299Z,101958.60
2019-02-24T06:15:25.626Z,101962.02
2019-02-24T06:18:30.794Z,101965.16
2019-02-24T06:21:36.026Z,101964.78
2019-02-24T06:24:41.253Z,101965.10
2019-02-24T06:27:46.342Z,101960.13
2019-02-24T06:30:51.495Z,101967.89
2019-02-24T06:33:56.755Z,101972.70
2019-02-24T06:37:01.905Z,101965.58
2019-02-24T06:40:08.562Z,101959.48
2019-02-24T06:43:13.778Z,101963.48
2019-02-24T06:46:18.958Z,101957.23
2019-02-24T06:49:24.128Z,101955.39
2019-02-24T06:52:30.318Z,101957.93
2019-02-24T06:55:35.498Z,101958.14
2019-02-24T06:58:40.620Z,101955.89
2019-02-24T07:01:45.762Z,101953.31
2019-02-24T07:04:51.030Z,101958.72
2019-02-24T07:07:56.284Z,101944.39
2019-02-24T07:11:01.519Z,101938.77
2019-02-24T07:14:06.705Z,101931.34
2019-02-24T07:17:11.847Z,101922.11
2019-02-24T07:20:17.060Z,101928.06
2019-02-24T07:23:22.214Z,101920.80
2019-02-24T07:26:27.431Z,101921.16
2019-02-24T07:29:32.546Z,101916.45
2019-02-24T07:32:37.770Z,101919.23
2019-02-24T07:35:42.895Z,101915.78
2019-02-24T07:38:48.191Z,101914.30
2019-02-24T07:41:53.319Z,101914.20
2019-02-24T07:44:58.495Z,101899.18
2019-02-24T07:48:03.604Z,101902.79
2019-02-24T07:51:08.837Z,101895.58
2019-02-24T07:54:13.941Z,101898.41
2019-02-24T07:57:19.090Z,101903.42
2019-02-24T08:00:31.956Z,101906.16
2019-02-24T08:03:31.099Z,101905.79
2019-02-24T08:06:36.259Z,101904.03
2019-02-24T08:09:41.506Z,101910.34
2019-02-24T08:12:46.663Z,101907.53
2019-02-24T08:15:51.897Z,101910.75
2019-02-24T08:18:57.100Z,101911.84
2019-02-24T08:22:03.174Z,101911.35
2019-02-24T08:25:09.374Z,101918.20
2019-02-24T08:28:14.561Z,101919.67
2019-02-24T08:31:19.725Z,101921.16
2019-02-24T08:34:24.869Z,101916.20
2019-02-24T08:37:30.019Z,101918.84
2019-02-24T08:40:35.209Z,101917.21
2019-02-24T08:43:40.446Z,101924.85
2019-02-24T08:46:45.773Z,101923.41
2019-02-24T08:49:50.851Z,101927.72
2019-02-24T08:52:57.106Z,101939.84
2019-02-24T08:56:02.440Z,101930.86
2019-02-24T08:59:07.688Z,101933.92
2019-02-24T09:02:12.835Z,101924.23
2019-02-24T09:05:18.042Z,101926.55
2019-02-24T09:08:23.157Z,101921.20
2019-02-24T09:11:29.253Z,101930.30
2019-02-24T09:14:34.386Z,101929.70
2019-02-24T09:17:39.503Z,101937.63
2019-02-24T09:20:44.725Z,101922.50
2019-02-24T09:23:50.105Z,101926.55
2019-02-24T09:26:55.231Z,101925.64
2019-02-24T09:30:00.398Z,101927.77
2019-02-24T09:33:05.489Z,101939.50
2019-02-24T09:36:10.580Z,101937.84
2019-02-24T09:39:18.486Z,101934.58
2019-02-24T09:42:23.607Z,101928.84
2019-02-24T09:45:28.760Z,101928.84
2019-02-24T09:48:34.032Z,101925.00
2019-02-24T09:51:39.202Z,101930.09
2019-02-24T09:54:44.430Z,101924.65
2019-02-24T09:57:50.571Z,101920.19
2019-02-24T10:00:55.845Z,101920.54
2019-02-24T10:04:00.935Z,101927.53
2019-02-24T10:07:06.062Z,101921.08
2019-02-24T10:10:11.465Z,101916.30
2019-02-24T10:13:16.643Z,101920.72
2019-02-24T10:16:21.773Z,101917.07
2019-02-24T10:19:26.919Z,101910.26
2019-02-24T10:22:32.016Z,101909.81
2019-02-24T10:25:37.213Z,101911.66
2019-02-24T10:28:42.479Z,101913.45
2019-02-24T10:31:47.678Z,101911.26
2019-02-24T10:34:52.901Z,101908.70
2019-02-24T10:37:58.249Z,101893.66
2019-02-24T10:41:03.436Z,101894.58
2019-02-24T10:44:09.693Z,101893.78
2019-02-24T10:47:15.038Z,101898.44
2019-02-24T10:50:21.484Z,101896.62
2019-02-24T10:53:28.157Z,101895.75
2019-02-24T10:56:33.919Z,101896.98
2019-02-24T10:59:39.070Z,101895.73
2019-02-24T11:02:44.207Z,101901.83
2019-02-24T11:05:49.448Z,101897.72
2019-02-24T11:08:54.633Z,101882.44
2019-02-24T11:11:59.733Z,101888.20
2019-02-24T11:15:05.103Z,101893.05
2019-02-24T11:18:10.712Z,101889.34
2019-02-24T11:21:16.077Z,101895.93
2019-02-24T11:24:21.204Z,101880.01
2019-02-24T11:27:26.341Z,101879.91
2019-02-24T11:30:31.501Z,101872.50
2019-02-24T11:33:36.869Z,101863.67
2019-02-24T11:36:42.004Z,101863.72
2019-02-24T11:39:47.213Z,101856.20
2019-02-24T11:42:52.430Z,101849.42
2019-02-24T11:45:57.739Z,101846.95
2019-02-24T11:49:02.906Z,101842.14
2019-02-24T11:52:08.269Z,101836.88
2019-02-24T11:55:13.703Z,101834.17
2019-02-24T11:58:18.870Z,101835.84
2019-02-24T12:01:24.047Z,101838.59
2019-02-24T12:04:29.197Z,101832.30
2019-02-24T12:07:34.487Z,101829.94
2019-02-24T12:10:40.082Z,101833.41
2019-02-24T12:13:45.152Z,101828.23
2019-02-24T12:16:50.355Z,101832.82
2019-02-24T12:19:55.542Z,101832.97
2019-02-24T12:23:00.785Z,101843.77
2019-02-24T12:26:05.971Z,101845.03
2019-02-24T12:29:11.407Z,101839.80
2019-02-24T12:32:16.575Z,101831.73
2019-02-24T12:35:21.716Z,101824.31
2019-02-24T12:38:26.910Z,101815.30
2019-02-24T12:41:32.051Z,101814.34
2019-02-24T12:44:37.232Z,101808.02
2019-02-24T12:47:42.320Z,101798.31
2019-02-24T12:50:47.500Z,101799.31
2019-02-24T12:53:53.796Z,101796.94
2019-02-24T12:56:58.955Z,101785.57
2019-02-24T13:00:04.308Z,101786.91
2019-02-24T13:03:09.653Z,101784.28
2019-02-24T13:06:14.834Z,101783.27
2019-02-24T13:09:23.987Z,101768.91
2019-02-24T13:12:29.225Z,101761.33
2019-02-24T13:15:34.371Z,101761.32
2019-02-24T13:18:39.644Z,101753.08
2019-02-24T13:21:46.430Z,101753.89
2019-02-24T13:24:51.807Z,101746.80
2019-02-24T13:27:56.959Z,101739.55
2019-02-24T13:31:02.346Z,101741.41
2019-02-24T13:34:07.600Z,101743.39
2019-02-24T13:37:12.947Z,101736.17
2019-02-24T13:40:18.103Z,101737.31
2019-02-24T13:43:23.268Z,101742.95
2019-02-24T13:46:28.564Z,101744.73
2019-02-24T13:49:33.892Z,101747.27
2019-02-24T13:52:39.036Z,101758.98
2019-02-24T13:55:44.212Z,101770.04
2019-02-24T13:58:49.352Z,101772.47
2019-02-24T14:01:54.521Z,101763.02
2019-02-24T14:04:59.666Z,101754.72
2019-02-24T14:08:04.871Z,101751.03
2019-02-24T14:11:10.036Z,101741.86
2019-02-24T14:14:15.262Z,101733.43
2019-02-24T14:17:20.416Z,101732.40
2019-02-24T14:20:25.753Z,101733.34
2019-02-24T14:23:30.961Z,101740.22
2019-02-24T14:26:36.133Z,101736.25
2019-02-24T14:29:41.285Z,101749.77
2019-02-24T14:32:46.403Z,101745.68
2019-02-24T14:35:51.708Z,101748.88
2019-02-24T14:38:56.891Z,101743.43
2019-02-24T14:42:01.983Z,101740.98
2019-02-24T14:45:11.158Z,101736.09
2019-02-24T14:48:17.513Z,101734.05
2019-02-24T14:51:22.642Z,101734.27
2019-02-24T14:54:27.697Z,101722.41
2019-02-24T14:57:32.825Z,101725.78
2019-02-24T15:00:38.058Z,101721.82
2019-02-24T15:03:43.340Z,101727.88
2019-02-24T15:06:48.522Z,101728.92
2019-02-24T15:09:54.497Z,101731.95
2019-02-24T15:12:59.612Z,101734.00
2019-02-24T15:16:04.825Z,101726.61
2019-02-24T15:19:09.925Z,101741.27
2019-02-24T15:22:15.061Z,101739.22
2019-02-24T15:25:20.419Z,101736.64
2019-02-24T15:28:25.583Z,101732.23
2019-02-24T15:31:30.863Z,101733.80
2019-02-24T15:34:36.118Z,101740.32
2019-02-24T15:37:41.376Z,101738.42
2019-02-24T15:40:46.482Z,101737.97
2019-02-24T15:43:51.734Z,101743.30
2019-02-24T15:46:56.885Z,101745.43
2019-02-24T15:50:02.505Z,101751.39
2019-02-24T15:53:07.728Z,101748.89
2019-02-24T15:56:13.132Z,101746.74
2019-02-24T15:59:18.510Z,101753.41
2019-02-24T16:02:23.662Z,101762.36
2019-02-24T16:05:28.849Z,101767.12
2019-02-24T16:08:34.900Z,101764.26
2019-02-24T16:11:40.094Z,101759.83
2019-02-24T16:14:45.224Z,101758.88
2019-02-24T16:17:50.532Z,101758.11
2019-02-24T16:20:55.706Z,101763.31
2019-02-24T16:24:00.968Z,101751.77
2019-02-24T16:27:06.251Z,101755.01
2019-02-24T16:30:12.099Z,101751.98
2019-02-24T16:33:17.204Z,101750.18
2019-02-24T16:36:22.544Z,101745.49
2019-02-24T16:39:27.700Z,101745.03
2019-02-24T16:42:32.860Z,101761.00
2019-02-24T16:45:38.099Z,101769.69
2019-02-24T16:48:43.400Z,101777.81
2019-02-24T16:51:48.562Z,101769.65
2019-02-24T16:54:53.734Z,101766.75
2019-02-24T16:57:58.950Z,101775.89
2019-02-24T17:01:04.219Z,101766.11
2019-02-24T17:04:09.504Z,101772.68
2019-02-24T17:07:14.649Z,101773.25
2019-02-24T17:10:20.004Z,101780.11
2019-02-24T17:13:25.249Z,101783.59
2019-02-24T17:16:30.389Z,101794.11
2019-02-24T17:19:35.560Z,101794.86
2019-02-24T17:22:40.695Z,101795.93
2019-02-24T17:25:45.885Z,101794.05
2019-02-24T17:28:52.197Z,101798.84
2019-02-24T17:31:57.387Z,101802.11
2019-02-24T17:35:02.546Z,101806.27
2019-02-24T17:38:07.920Z,101813.26
2019-02-24T17:41:13.023Z,101804.97
2019-02-24T17:44:19.190Z,101816.71
2019-02-24T17:47:24.394Z,101815.16
2019-02-24T17:50:29.574Z,101823.08
2019-02-24T17:53:34.884Z,101827.78
2019-02-24T17:56:40.148Z,101833.50
2019-02-24T17:59:45.466Z,101839.33
2019-02-24T18:02:50.634Z,101841.01
2019-02-24T18:05:57.011Z,101835.27
2019-02-24T18:09:02.189Z,101841.65
2019-02-24T18:12:08.964Z,101836.78
2019-02-24T18:15:15.697Z,101834.09
2019-02-24T18:18:21.060Z,101829.34
2019-02-24T18:21:27.205Z,101826.52
2019-02-24T18:24:32.397Z,101840.61
2019-02-24T18:27:37.607Z,101843.39
2019-02-24T18:30:44.413Z,101839.23
2019-02-24T18:33:49.635Z,101835.80
2019-02-24T18:36:54.831Z,101834.77
2019-02-24T18:40:00.190Z,101832.16
2019-02-24T18:43:05.415Z,101833.53
2019-02-24T18:46:10.667Z,101825.16
2019-02-24T18:49:15.837Z,101832.44
2019-02-24T18:52:21.478Z,101827.57
2019-02-24T18:55:36.554Z,101826.83
2019-02-24T18:58:41.809Z,101825.07
2019-02-24T19:01:47.838Z,101813.29
2019-02-24T19:04:53.775Z,101819.94
2019-02-24T19:07:59.890Z,101816.39
2019-02-24T19:11:06.130Z,101817.34
2019-02-24T19:14:11.388Z,101824.75
2019-02-24T19:17:16.597Z,101818.84
2019-02-24T19:20:21.831Z,101803.95
2019-02-24T19:23:27.052Z,101805.52
2019-02-24T19:26:32.288Z,101799.18
2019-02-24T19:29:37.453Z,101819.60
2019-02-24T19:32:42.686Z,101821.02
2019-02-24T19:35:47.979Z,101829.48
2019-02-24T19:38:55.019Z,101829.70
2019-02-24T19:42:00.248Z,101833.65
2019-02-24T19:45:05.781Z,101843.63
2019-02-24T19:48:11.196Z,101845.45
2019-02-24T19:51:16.399Z,101843.91
2019-02-24T19:54:21.549Z,101840.69
2019-02-24T19:57:26.839Z,101827.65
2019-02-24T20:00:32.143Z,101832.55
2019-02-24T20:03:37.524Z,101840.37
2019-02-24T20:06:42.825Z,101842.73
2019-02-24T20:09:47.992Z,101843.37
2019-02-24T20:12:53.160Z,101851.31
2019-02-24T20:15:58.666Z,101847.59
2019-02-24T20:19:03.868Z,101851.58
2019-02-24T20:22:09.060Z,101851.52
2019-02-24T20:25:14.299Z,101845.45
2019-02-24T20:28:19.429Z,101851.80
2019-02-24T20:31:24.624Z,101857.73
2019-02-24T20:34:29.793Z,101863.30
2019-02-24T20:37:35.090Z,101875.45
2019-02-24T20:40:40.402Z,101874.73
2019-02-24T20:43:45.573Z,101886.66
2019-02-24T20:46:50.981Z,101888.84
2019-02-24T20:49:56.180Z,101895.97
2019-02-24T20:53:01.404Z,101893.88
2019-02-24T20:56:06.550Z,101893.89
2019-02-24T20:59:11.763Z,101897.30
2019-02-24T21:02:16.996Z,101909.02
2019-02-24T21:05:22.283Z,101913.00
2019-02-24T21:08:27.397Z,101912.96
2019-02-24T21:11:32.595Z,101913.33
2019-02-24T21:14:37.769Z,101899.93
2019-02-24T21:17:43.027Z,101906.27
2019-02-24T21:20:48.200Z,101909.31
2019-02-24T21:23:53.471Z,101911.89
2019-02-24T21:26:58.767Z,101919.92
2019-02-24T21:30:04.441Z,101907.81
2019-02-24T21:33:09.909Z,101920.94
2019-02-24T21:36:15.369Z,101915.06
2019-02-24T21:39:20.527Z,101905.29
2019-02-24T21:42:25.829Z,101909.82
2019-02-24T21:45:31.000Z,101911.37
2019-02-24T21:48:36.255Z,101914.31
2019-02-24T21:51:42.505Z,101911.19
2019-02-24T21:54:47.758Z,101910.08
2019-02-24T21:57:52.896Z,101899.93
2019-02-24T22:00:58.169Z,101896.62
2019-02-24T22:04:03.333Z,101895.55
2019-02-24T22:07:09.462Z,101903.68
2019-02-24T22:10:15.303Z,101893.86
2019-02-24T22:13:20.537Z,101891.39
2019-02-24T22:16:25.826Z,101897.09
2019-02-24T22:19:31.237Z,101898.85
2019-02-24T22:22:36.445Z,101893.85
2019-02-24T22:25:41.611Z,101905.28
2019-02-24T22:28:46.751Z,101890.70
2019-02-24T22:31:52.247Z,101890.22
2019-02-24T22:34:57.377Z,101884.91
2019-02-24T22:38:02.547Z,101885.27
2019-02-24T22:41:07.773Z,101884.16
2019-02-24T22:44:12.936Z,101883.09
2019-02-24T22:47:18.060Z,101885.81
2019-02-24T22:50:23.296Z,101878.45
2019-02-24T22:53:28.502Z,101887.12
2019-02-24T22:56:33.635Z,101886.04
2019-02-24T22:59:38.827Z,101886.87
2019-02-24T23:02:44.011Z,101889.34
2019-02-24T23:05:49.236Z,101882.02
2019-02-24T23:08:54.764Z,101883.47
2019-02-24T23:12:00.119Z,101888.86
2019-02-24T23:15:05.575Z,101885.06
2019-02-24T23:18:10.729Z,101880.02
2019-02-24T23:21:15.905Z,101878.16
2019-02-24T23:24:21.150Z,101889.63
2019-02-24T23:27:26.351Z,101886.33
2019-02-24T23:30:31.459Z,101882.05
2019-02-24T23:33:36.652Z,101881.16
2019-02-24T23:36:41.767Z,101873.95
2019-02-24T23:39:46.963Z,101877.80
2019-02-24T23:42:52.129Z,101878.74
2019-02-24T23:45:57.312Z,101882.05
2019-02-24T23:49:02.468Z,101888.60
2019-02-24T23:52:07.860Z,101896.74
2019-02-24T23:55:13.058Z,101898.94
2019-02-24T23:58:18.320Z,101908.80
